To NAV CANADA Home Page Login to a new session Search on AWWS site Feedback and Comments Disclaimer Vers la page française équivalente Tips FAQ What's new on the site To the Forecasts and Observations / NOTAM section To "File a Flight Plan" website Publications and other links Update of the User's profile FIC Telephone Numbers My Weather Data Folder Route Weather Data Regional Weather Data Local Weather Data To the Forecasts and Observations / NOTAM section
Request Generated 02/23/2017 at 20:46:34 UTC . Weather information available at that time is displayed.

METAR/TAF

FARO/YT    

METAR CZFA 232000Z 32010KT 30SM VCSH SCT029 BKN035 BKN080 M12/M16
A3026 RMK SC4SC2AC1 VIS N 10 SLP325=
METAR CZFA 231900Z 29008KT 30SM VCSH BKN040 BKN060 BKN080 M11/M15
A3026 RMK SC5SC1AC1 VIS N 10 SLP317=
METAR CZFA 231800Z 32006KT 30SM FEW070 BKN240 M15/M18 A3026 RMK
AC2CI3 SLP321=

TAF CZFA 231738Z 2318/2323 32005KT P6SM FEW060 SCT120
RMK NXT FCST WILL BE ISSUED AT 241645Z=
Your time UTC time
Weather data provided by Environment Canada and NAV CANADA